sensor_id;sensor_type;location;lat;lon;timestamp;temperature;humidity
2112;DHT22;1062;52.538;13.400;2023-01-26T00:00:49;0.70;99.90
2112;DHT22;1062;52.538;13.400;2023-01-26T00:03:15;0.60;99.90
2112;DHT22;1062;52.538;13.400;2023-01-26T00:05:40;0.70;99.90
2112;DHT22;1062;52.538;13.400;2023-01-26T00:08:06;0.70;99.90
2112;DHT22;1062;52.538;13.400;2023-01-26T00:10:38;0.60;99.90
2112;DHT22;1062;52.538;13.400;2023-01-26T00:13:05;0.50;99.90
2112;DHT22;1062;52.538;13.400;2023-01-26T00:15:32;0.60;99.90
2112;DHT22;1062;52.538;13.400;2023-01-26T00:17:59;0.60;99.90
2112;DHT22;1062;52.538;13.400;2023-01-26T00:20:25;0.70;99.90
2112;DHT22;1062;52.538;13.400;2023-01-26T00:22:51;0.70;99.90
2112;DHT22;1062;52.538;13.400;2023-01-26T00:25:16;0.70;99.90
2112;DHT22;1062;52.538;13.400;2023-01-26T00:27:42;0.60;99.90
2112;DHT22;1062;52.538;13.400;2023-01-26T00:30:08;0.50;99.90
2112;DHT22;1062;52.538;13.400;2023-01-26T00:32:34;0.50;99.90
2112;DHT22;1062;52.538;13.400;2023-01-26T00:35:00;0.40;99.90
2112;DHT22;1062;52.538;13.400;2023-01-26T00:37:26;0.40;99.90
2112;DHT22;1062;52.538;13.400;2023-01-26T00:39:51;0.40;99.90
2112;DHT22;1062;52.538;13.400;2023-01-26T00:42:17;0.50;99.90
2112;DHT22;1062;52.538;13.400;2023-01-26T00:44:43;0.40;99.90
2112;DHT22;1062;52.538;13.400;2023-01-26T00:47:10;0.50;99.90
2112;DHT22;1062;52.538;13.400;2023-01-26T00:49:36;0.40;99.90
2112;DHT22;1062;52.538;13.400;2023-01-26T00:52:02;0.40;99.90
2112;DHT22;1062;52.538;13.400;2023-01-26T00:54:28;0.40;99.90
2112;DHT22;1062;52.538;13.400;2023-01-26T00:56:54;0.40;99.90
2112;DHT22;1062;52.538;13.400;2023-01-26T00:59:20;0.40;99.90
2112;DHT22;1062;52.538;13.400;2023-01-26T01:01:46;0.50;99.90
2112;DHT22;1062;52.538;13.400;2023-01-26T01:04:12;0.50;99.90
2112;DHT22;1062;52.538;13.400;2023-01-26T01:06:38;0.50;99.90
2112;DHT22;1062;52.538;13.400;2023-01-26T01:09:03;0.50;99.90
2112;DHT22;1062;52.538;13.400;2023-01-26T01:11:32;0.50;99.90
2112;DHT22;1062;52.538;13.400;2023-01-26T01:13:58;0.40;99.90
2112;DHT22;1062;52.538;13.400;2023-01-26T01:16:23;0.50;99.90
2112;DHT22;1062;52.538;13.400;2023-01-26T01:18:53;0.50;99.90
2112;DHT22;1062;52.538;13.400;2023-01-26T01:21:19;0.60;99.90
2112;DHT22;1062;52.538;13.400;2023-01-26T01:23:45;0.60;99.90
2112;DHT22;1062;52.538;13.400;2023-01-26T01:26:11;0.60;99.90
2112;DHT22;1062;52.538;13.400;2023-01-26T01:28:37;0.60;99.90
2112;DHT22;1062;52.538;13.400;2023-01-26T01:31:05;0.60;99.90
2112;DHT22;1062;52.538;13.400;2023-01-26T01:33:30;0.50;99.90
2112;DHT22;1062;52.538;13.400;2023-01-26T01:36:02;0.50;99.90
2112;DHT22;1062;52.538;13.400;2023-01-26T01:38:28;0.60;99.90
2112;DHT22;1062;52.538;13.400;2023-01-26T01:40:54;0.60;99.90
2112;DHT22;1062;52.538;13.400;2023-01-26T01:43:21;0.70;99.90
2112;DHT22;1062;52.538;13.400;2023-01-26T01:45:48;0.60;99.90
2112;DHT22;1062;52.538;13.400;2023-01-26T01:48:37;0.60;99.90
2112;DHT22;1062;52.538;13.400;2023-01-26T01:51:12;0.70;99.90
2112;DHT22;1062;52.538;13.400;2023-01-26T01:53:43;0.60;99.90
2112;DHT22;1062;52.538;13.400;2023-01-26T01:56:14;0.70;99.90
2112;DHT22;1062;52.538;13.400;2023-01-26T01:58:44;0.70;99.90
2112;DHT22;1062;52.538;13.400;2023-01-26T02:01:10;0.70;99.90
2112;DHT22;1062;52.538;13.400;2023-01-26T02:03:36;0.60;99.90
2112;DHT22;1062;52.538;13.400;2023-01-26T02:06:07;0.60;99.90
2112;DHT22;1062;52.538;13.400;2023-01-26T02:08:54;0.60;99.90
2112;DHT22;1062;52.538;13.400;2023-01-26T02:11:34;0.60;99.90
2112;DHT22;1062;52.538;13.400;2023-01-26T02:14:03;0.60;99.90
2112;DHT22;1062;52.538;13.400;2023-01-26T02:16:29;0.70;99.90
2112;DHT22;1062;52.538;13.400;2023-01-26T02:18:55;0.60;99.90
2112;DHT22;1062;52.538;13.400;2023-01-26T02:21:22;0.50;99.90
2112;DHT22;1062;52.538;13.400;2023-01-26T02:26:27;0.50;99.90
2112;DHT22;1062;52.538;13.400;2023-01-26T02:28:54;0.50;99.90
2112;DHT22;1062;52.538;13.400;2023-01-26T02:31:21;0.60;99.90
2112;DHT22;1062;52.538;13.400;2023-01-26T02:33:47;0.50;99.90
2112;DHT22;1062;52.538;13.400;2023-01-26T02:36:19;0.60;99.90
2112;DHT22;1062;52.538;13.400;2023-01-26T02:41:35;0.60;99.90
2112;DHT22;1062;52.538;13.400;2023-01-26T02:44:19;0.60;99.90
2112;DHT22;1062;52.538;13.400;2023-01-26T02:46:45;0.60;99.90
2112;DHT22;1062;52.538;13.400;2023-01-26T02:49:11;0.60;99.90
2112;DHT22;1062;52.538;13.400;2023-01-26T02:51:55;0.50;99.90
2112;DHT22;1062;52.538;13.400;2023-01-26T02:54:20;0.60;99.90
2112;DHT22;1062;52.538;13.400;2023-01-26T02:57:04;0.60;99.90
2112;DHT22;1062;52.538;13.400;2023-01-26T02:59:30;0.70;99.90
2112;DHT22;1062;52.538;13.400;2023-01-26T03:01:56;0.60;99.90
2112;DHT22;1062;52.538;13.400;2023-01-26T03:04:22;0.50;99.90
2112;DHT22;1062;52.538;13.400;2023-01-26T03:06:48;0.50;99.90
2112;DHT22;1062;52.538;13.400;2023-01-26T03:09:13;0.40;99.90
2112;DHT22;1062;52.538;13.400;2023-01-26T03:11:39;0.30;99.90
2112;DHT22;1062;52.538;13.400;2023-01-26T03:14:12;0.40;99.90
2112;DHT22;1062;52.538;13.400;2023-01-26T03:16:38;0.40;99.90
2112;DHT22;1062;52.538;13.400;2023-01-26T03:19:06;0.30;99.90
2112;DHT22;1062;52.538;13.400;2023-01-26T03:21:33;0.30;99.90
2112;DHT22;1062;52.538;13.400;2023-01-26T03:24:28;0.40;99.90
2112;DHT22;1062;52.538;13.400;2023-01-26T03:27:12;0.40;99.90
2112;DHT22;1062;52.538;13.400;2023-01-26T03:29:56;0.50;99.90
2112;DHT22;1062;52.538;13.400;2023-01-26T03:32:23;0.40;99.90
2112;DHT22;1062;52.538;13.400;2023-01-26T03:34:49;0.40;99.90
2112;DHT22;1062;52.538;13.400;2023-01-26T03:37:14;0.30;99.90
2112;DHT22;1062;52.538;13.400;2023-01-26T03:39:40;0.40;99.90
2112;DHT22;1062;52.538;13.400;2023-01-26T03:42:24;0.30;99.90
2112;DHT22;1062;52.538;13.400;2023-01-26T03:45:08;0.30;99.90
2112;DHT22;1062;52.538;13.400;2023-01-26T03:47:53;0.30;99.90
2112;DHT22;1062;52.538;13.400;2023-01-26T03:50:45;0.30;99.90
2112;DHT22;1062;52.538;13.400;2023-01-26T03:53:29;0.30;99.90
2112;DHT22;1062;52.538;13.400;2023-01-26T03:56:13;0.30;99.90
2112;DHT22;1062;52.538;13.400;2023-01-26T03:58:58;0.20;99.90
2112;DHT22;1062;52.538;13.400;2023-01-26T04:01:34;0.20;99.90
2112;DHT22;1062;52.538;13.400;2023-01-26T04:04:00;0.20;99.90
2112;DHT22;1062;52.538;13.400;2023-01-26T04:06:46;0.30;99.90
2112;DHT22;1062;52.538;13.400;2023-01-26T04:09:31;0.30;99.90
2112;DHT22;1062;52.538;13.400;2023-01-26T04:11:57;0.40;99.90
2112;DHT22;1062;52.538;13.400;2023-01-26T04:14:23;0.40;99.90
2112;DHT22;1062;52.538;13.400;2023-01-26T04:17:07;0.40;99.90
2112;DHT22;1062;52.538;13.400;2023-01-26T04:19:51;0.30;99.90
2112;DHT22;1062;52.538;13.400;2023-01-26T04:22:39;0.30;99.90
2112;DHT22;1062;52.538;13.400;2023-01-26T04:25:12;0.30;99.90
2112;DHT22;1062;52.538;13.400;2023-01-26T04:27:39;0.40;99.90
2112;DHT22;1062;52.538;13.400;2023-01-26T04:30:06;0.40;99.90
2112;DHT22;1062;52.538;13.400;2023-01-26T04:32:32;0.40;99.90
2112;DHT22;1062;52.538;13.400;2023-01-26T04:34:57;0.50;99.90
2112;DHT22;1062;52.538;13.400;2023-01-26T04:37:23;0.50;99.90
2112;DHT22;1062;52.538;13.400;2023-01-26T04:39:49;0.40;99.90
2112;DHT22;1062;52.538;13.400;2023-01-26T04:42:14;0.50;99.90
2112;DHT22;1062;52.538;13.400;2023-01-26T04:44:40;0.40;99.90
2112;DHT22;1062;52.538;13.400;2023-01-26T04:47:06;0.40;99.90
2112;DHT22;1062;52.538;13.400;2023-01-26T04:49:31;0.40;99.90
2112;DHT22;1062;52.538;13.400;2023-01-26T04:51:57;0.50;99.90
2112;DHT22;1062;52.538;13.400;2023-01-26T04:54:22;0.50;99.90
2112;DHT22;1062;52.538;13.400;2023-01-26T04:56:48;0.50;99.90
2112;DHT22;1062;52.538;13.400;2023-01-26T04:59:14;0.50;99.90
2112;DHT22;1062;52.538;13.400;2023-01-26T05:01:40;0.60;99.90
2112;DHT22;1062;52.538;13.400;2023-01-26T05:04:06;0.60;99.90
2112;DHT22;1062;52.538;13.400;2023-01-26T05:06:31;0.60;99.90
2112;DHT22;1062;52.538;13.400;2023-01-26T05:08:58;0.40;99.90
2112;DHT22;1062;52.538;13.400;2023-01-26T05:11:23;0.50;99.90
2112;DHT22;1062;52.538;13.400;2023-01-26T05:13:49;0.40;99.90
2112;DHT22;1062;52.538;13.400;2023-01-26T05:16:15;0.40;99.90
2112;DHT22;1062;52.538;13.400;2023-01-26T05:18:41;0.30;99.90
2112;DHT22;1062;52.538;13.400;2023-01-26T05:21:08;0.10;99.90
2112;DHT22;1062;52.538;13.400;2023-01-26T05:23:33;0.30;99.90
2112;DHT22;1062;52.538;13.400;2023-01-26T05:25:59;0.30;99.90
2112;DHT22;1062;52.538;13.400;2023-01-26T05:28:25;0.30;99.90
2112;DHT22;1062;52.538;13.400;2023-01-26T05:30:50;0.30;99.90
2112;DHT22;1062;52.538;13.400;2023-01-26T05:33:16;0.30;99.90
2112;DHT22;1062;52.538;13.400;2023-01-26T05:35:49;0.20;99.90
2112;DHT22;1062;52.538;13.400;2023-01-26T05:38:15;0.30;99.90
2112;DHT22;1062;52.538;13.400;2023-01-26T05:40:41;0.20;99.90
2112;DHT22;1062;52.538;13.400;2023-01-26T05:43:06;0.20;99.90
2112;DHT22;1062;52.538;13.400;2023-01-26T05:45:35;0.30;99.90
2112;DHT22;1062;52.538;13.400;2023-01-26T05:48:01;0.20;99.90
2112;DHT22;1062;52.538;13.400;2023-01-26T05:50:27;0.20;99.90
2112;DHT22;1062;52.538;13.400;2023-01-26T05:52:53;0.20;99.90
2112;DHT22;1062;52.538;13.400;2023-01-26T05:55:19;0.30;99.90
2112;DHT22;1062;52.538;13.400;2023-01-26T05:57:45;0.40;99.90
2112;DHT22;1062;52.538;13.400;2023-01-26T06:00:11;0.30;99.90
2112;DHT22;1062;52.538;13.400;2023-01-26T06:02:37;0.30;99.90
2112;DHT22;1062;52.538;13.400;2023-01-26T06:05:04;0.30;99.90
2112;DHT22;1062;52.538;13.400;2023-01-26T06:07:30;0.40;99.90
2112;DHT22;1062;52.538;13.400;2023-01-26T06:09:56;0.40;99.90
2112;DHT22;1062;52.538;13.400;2023-01-26T06:12:22;0.30;99.90
2112;DHT22;1062;52.538;13.400;2023-01-26T06:14:48;0.20;99.90
2112;DHT22;1062;52.538;13.400;2023-01-26T06:17:15;0.20;99.90
2112;DHT22;1062;52.538;13.400;2023-01-26T06:19:41;0.30;99.90
2112;DHT22;1062;52.538;13.400;2023-01-26T06:22:08;0.30;99.90
2112;DHT22;1062;52.538;13.400;2023-01-26T06:24:33;0.30;99.90
2112;DHT22;1062;52.538;13.400;2023-01-26T06:26:59;0.40;99.90
2112;DHT22;1062;52.538;13.400;2023-01-26T06:29:25;0.40;99.90
2112;DHT22;1062;52.538;13.400;2023-01-26T06:31:51;0.40;99.90
2112;DHT22;1062;52.538;13.400;2023-01-26T06:34:17;0.40;99.90
2112;DHT22;1062;52.538;13.400;2023-01-26T06:36:43;0.40;99.90
2112;DHT22;1062;52.538;13.400;2023-01-26T06:39:10;0.40;99.90
2112;DHT22;1062;52.538;13.400;2023-01-26T06:41:36;0.40;99.90
2112;DHT22;1062;52.538;13.400;2023-01-26T06:44:02;0.30;99.90
2112;DHT22;1062;52.538;13.400;2023-01-26T06:46:27;0.30;99.90
2112;DHT22;1062;52.538;13.400;2023-01-26T06:48:53;0.30;99.90
2112;DHT22;1062;52.538;13.400;2023-01-26T06:53:55;0.40;99.90
2112;DHT22;1062;52.538;13.400;2023-01-26T06:56:21;0.40;99.90
2112;DHT22;1062;52.538;13.400;2023-01-26T06:58:48;0.50;99.90
2112;DHT22;1062;52.538;13.400;2023-01-26T07:01:19;0.50;99.90
2112;DHT22;1062;52.538;13.400;2023-01-26T07:03:50;0.50;99.90
2112;DHT22;1062;52.538;13.400;2023-01-26T07:06:16;0.30;99.90
2112;DHT22;1062;52.538;13.400;2023-01-26T07:08:42;0.40;99.90
2112;DHT22;1062;52.538;13.400;2023-01-26T07:11:10;0.40;99.90
2112;DHT22;1062;52.538;13.400;2023-01-26T07:13:36;0.30;99.90
2112;DHT22;1062;52.538;13.400;2023-01-26T07:18:30;0.40;99.90
2112;DHT22;1062;52.538;13.400;2023-01-26T07:21:01;0.40;99.90
2112;DHT22;1062;52.538;13.400;2023-01-26T07:23:27;0.30;99.90
2112;DHT22;1062;52.538;13.400;2023-01-26T07:25:53;0.30;99.90
2112;DHT22;1062;52.538;13.400;2023-01-26T07:28:18;0.40;99.90
2112;DHT22;1062;52.538;13.400;2023-01-26T07:30:44;0.30;99.90
2112;DHT22;1062;52.538;13.400;2023-01-26T07:33:09;0.40;99.90
2112;DHT22;1062;52.538;13.400;2023-01-26T07:35:35;0.30;99.90
2112;DHT22;1062;52.538;13.400;2023-01-26T07:38:03;0.30;99.90
2112;DHT22;1062;52.538;13.400;2023-01-26T07:40:29;0.20;99.90
2112;DHT22;1062;52.538;13.400;2023-01-26T07:42:55;0.20;99.90
2112;DHT22;1062;52.538;13.400;2023-01-26T07:45:21;0.20;99.90
2112;DHT22;1062;52.538;13.400;2023-01-26T07:47:46;0.30;99.90
2112;DHT22;1062;52.538;13.400;2023-01-26T07:50:12;0.30;99.90
2112;DHT22;1062;52.538;13.400;2023-01-26T07:52:39;0.40;99.90
2112;DHT22;1062;52.538;13.400;2023-01-26T07:55:04;0.30;99.90
2112;DHT22;1062;52.538;13.400;2023-01-26T07:57:30;0.30;99.90
2112;DHT22;1062;52.538;13.400;2023-01-26T07:59:56;0.30;99.90
2112;DHT22;1062;52.538;13.400;2023-01-26T08:02:22;0.20;99.90
2112;DHT22;1062;52.538;13.400;2023-01-26T08:04:47;0.40;99.90
2112;DHT22;1062;52.538;13.400;2023-01-26T08:07:13;0.30;99.90
2112;DHT22;1062;52.538;13.400;2023-01-26T08:09:39;0.30;99.90
2112;DHT22;1062;52.538;13.400;2023-01-26T08:12:05;0.30;99.90
2112;DHT22;1062;52.538;13.400;2023-01-26T08:14:31;0.30;99.90
2112;DHT22;1062;52.538;13.400;2023-01-26T08:16:57;0.30;99.90
2112;DHT22;1062;52.538;13.400;2023-01-26T08:19:23;0.30;99.90
2112;DHT22;1062;52.538;13.400;2023-01-26T08:21:48;0.20;99.90
2112;DHT22;1062;52.538;13.400;2023-01-26T08:24:14;0.30;99.90
2112;DHT22;1062;52.538;13.400;2023-01-26T08:26:39;0.30;99.90
2112;DHT22;1062;52.538;13.400;2023-01-26T08:29:05;0.20;99.90
2112;DHT22;1062;52.538;13.400;2023-01-26T08:31:31;0.20;99.90
2112;DHT22;1062;52.538;13.400;2023-01-26T08:33:58;0.20;99.90
2112;DHT22;1062;52.538;13.400;2023-01-26T08:36:23;0.20;99.90
2112;DHT22;1062;52.538;13.400;2023-01-26T08:38:50;0.20;99.90
2112;DHT22;1062;52.538;13.400;2023-01-26T08:41:16;0.10;99.90
2112;DHT22;1062;52.538;13.400;2023-01-26T08:43:41;0.10;99.90
2112;DHT22;1062;52.538;13.400;2023-01-26T08:46:07;0.10;99.90
2112;DHT22;1062;52.538;13.400;2023-01-26T08:48:33;0.00;99.90
2112;DHT22;1062;52.538;13.400;2023-01-26T08:51:00;0.10;99.90
2112;DHT22;1062;52.538;13.400;2023-01-26T08:53:29;0.10;99.90
2112;DHT22;1062;52.538;13.400;2023-01-26T08:55:55;0.00;99.90
2112;DHT22;1062;52.538;13.400;2023-01-26T08:58:21;-0.10;99.90
2112;DHT22;1062;52.538;13.400;2023-01-26T09:00:46;0.00;99.90
2112;DHT22;1062;52.538;13.400;2023-01-26T09:03:12;0.00;99.90
2112;DHT22;1062;52.538;13.400;2023-01-26T09:05:39;0.00;99.90
2112;DHT22;1062;52.538;13.400;2023-01-26T09:08:06;0.00;99.90
2112;DHT22;1062;52.538;13.400;2023-01-26T09:10:32;0.10;99.90
2112;DHT22;1062;52.538;13.400;2023-01-26T09:12:59;0.10;99.90
2112;DHT22;1062;52.538;13.400;2023-01-26T09:15:25;0.20;99.90
2112;DHT22;1062;52.538;13.400;2023-01-26T09:17:51;0.30;99.90
2112;DHT22;1062;52.538;13.400;2023-01-26T09:20:17;0.10;99.90
2112;DHT22;1062;52.538;13.400;2023-01-26T09:22:43;0.10;99.90
2112;DHT22;1062;52.538;13.400;2023-01-26T09:25:09;0.10;99.90
2112;DHT22;1062;52.538;13.400;2023-01-26T09:27:35;0.00;99.90
2112;DHT22;1062;52.538;13.400;2023-01-26T09:30:01;0.10;99.90
2112;DHT22;1062;52.538;13.400;2023-01-26T09:32:27;0.10;99.90
2112;DHT22;1062;52.538;13.400;2023-01-26T09:34:54;0.10;99.90
2112;DHT22;1062;52.538;13.400;2023-01-26T09:37:20;0.00;99.90
2112;DHT22;1062;52.538;13.400;2023-01-26T09:39:45;0.10;99.90
2112;DHT22;1062;52.538;13.400;2023-01-26T09:45:08;0.20;99.90
2112;DHT22;1062;52.538;13.400;2023-01-26T09:50:45;0.20;99.90
2112;DHT22;1062;52.538;13.400;2023-01-26T09:53:43;0.20;99.90
2112;DHT22;1062;52.538;13.400;2023-01-26T09:56:17;0.20;99.90
2112;DHT22;1062;52.538;13.400;2023-01-26T09:58:46;0.20;99.90
2112;DHT22;1062;52.538;13.400;2023-01-26T10:01:21;0.20;99.90
2112;DHT22;1062;52.538;13.400;2023-01-26T10:04:03;0.10;99.90
2112;DHT22;1062;52.538;13.400;2023-01-26T10:06:30;0.10;99.90
2112;DHT22;1062;52.538;13.400;2023-01-26T10:09:12;0.20;99.90
2112;DHT22;1062;52.538;13.400;2023-01-26T10:11:47;0.20;99.90
2112;DHT22;1062;52.538;13.400;2023-01-26T10:16:59;0.30;99.90
2112;DHT22;1062;52.538;13.400;2023-01-26T10:19:33;0.30;99.90
2112;DHT22;1062;52.538;13.400;2023-01-26T10:22:06;0.20;99.90
2112;DHT22;1062;52.538;13.400;2023-01-26T10:24:34;0.30;99.90
2112;DHT22;1062;52.538;13.400;2023-01-26T10:26:59;0.20;99.90
2112;DHT22;1062;52.538;13.400;2023-01-26T10:29:25;0.00;99.90
2112;DHT22;1062;52.538;13.400;2023-01-26T10:31:51;0.00;99.90
2112;DHT22;1062;52.538;13.400;2023-01-26T10:34:22;0.10;99.90
2112;DHT22;1062;52.538;13.400;2023-01-26T10:36:49;0.00;99.90
2112;DHT22;1062;52.538;13.400;2023-01-26T10:39:16;0.00;99.90
2112;DHT22;1062;52.538;13.400;2023-01-26T10:41:57;-0.10;99.90
2112;DHT22;1062;52.538;13.400;2023-01-26T10:44:37;0.00;99.90
2112;DHT22;1062;52.538;13.400;2023-01-26T10:49:29;-0.10;99.90
2112;DHT22;1062;52.538;13.400;2023-01-26T10:52:16;0.00;99.90
2112;DHT22;1062;52.538;13.400;2023-01-26T10:54:43;0.10;99.90
2112;DHT22;1062;52.538;13.400;2023-01-26T10:57:16;0.10;99.90
2112;DHT22;1062;52.538;13.400;2023-01-26T11:00:00;0.10;99.90
2112;DHT22;1062;52.538;13.400;2023-01-26T11:02:34;0.10;99.90
2112;DHT22;1062;52.538;13.400;2023-01-26T11:12:45;0.00;99.90
2112;DHT22;1062;52.538;13.400;2023-01-26T11:15:20;0.10;99.90
2112;DHT22;1062;52.538;13.400;2023-01-26T11:17:58;-0.10;99.90
2112;DHT22;1062;52.538;13.400;2023-01-26T11:20:46;-0.10;99.90
2112;DHT22;1062;52.538;13.400;2023-01-26T11:26:16;0.10;99.90
2112;DHT22;1062;52.538;13.400;2023-01-26T11:29:34;0.10;99.90
2112;DHT22;1062;52.538;13.400;2023-01-26T11:32:01;0.00;99.90
2112;DHT22;1062;52.538;13.400;2023-01-26T11:34:48;-0.10;99.90
2112;DHT22;1062;52.538;13.400;2023-01-26T11:49:02;0.60;99.90
2112;DHT22;1062;52.538;13.400;2023-01-26T11:59:41;0.20;99.90
2112;DHT22;1062;52.538;13.400;2023-01-26T12:04:43;0.40;99.90
2112;DHT22;1062;52.538;13.400;2023-01-26T12:07:21;0.60;99.90
2112;DHT22;1062;52.538;13.400;2023-01-26T12:09:49;0.40;99.90
2112;DHT22;1062;52.538;13.400;2023-01-26T12:12:26;0.40;99.90
2112;DHT22;1062;52.538;13.400;2023-01-26T12:15:14;0.50;99.90
2112;DHT22;1062;52.538;13.400;2023-01-26T12:17:44;0.60;99.90
2112;DHT22;1062;52.538;13.400;2023-01-26T12:23:25;0.60;99.90
2112;DHT22;1062;52.538;13.400;2023-01-26T12:25:59;0.60;99.90
2112;DHT22;1062;52.538;13.400;2023-01-26T12:32:00;0.70;99.90
2112;DHT22;1062;52.538;13.400;2023-01-26T12:34:31;0.80;99.90
2112;DHT22;1062;52.538;13.400;2023-01-26T12:39:34;0.60;99.90
2112;DHT22;1062;52.538;13.400;2023-01-26T12:42:43;0.60;99.90
2112;DHT22;1062;52.538;13.400;2023-01-26T12:45:18;0.60;99.90
2112;DHT22;1062;52.538;13.400;2023-01-26T12:47:50;0.70;99.90
2112;DHT22;1062;52.538;13.400;2023-01-26T12:50:30;0.80;99.90
2112;DHT22;1062;52.538;13.400;2023-01-26T12:53:04;0.90;99.90
2112;DHT22;1062;52.538;13.400;2023-01-26T12:55:39;0.80;99.90
2112;DHT22;1062;52.538;13.400;2023-01-26T13:01:19;0.70;99.90
2112;DHT22;1062;52.538;13.400;2023-01-26T13:03:56;0.80;99.90
2112;DHT22;1062;52.538;13.400;2023-01-26T13:06:24;0.70;99.90
2112;DHT22;1062;52.538;13.400;2023-01-26T13:08:59;0.50;99.90
2112;DHT22;1062;52.538;13.400;2023-01-26T13:16:55;0.50;99.90
2112;DHT22;1062;52.538;13.400;2023-01-26T13:25:12;0.70;99.90
2112;DHT22;1062;52.538;13.400;2023-01-26T13:35:24;0.80;99.90
2112;DHT22;1062;52.538;13.400;2023-01-26T13:38:13;0.80;99.90
2112;DHT22;1062;52.538;13.400;2023-01-26T13:40:45;0.80;99.90
2112;DHT22;1062;52.538;13.400;2023-01-26T13:43:30;0.70;99.90
2112;DHT22;1062;52.538;13.400;2023-01-26T13:46:09;0.70;99.90
2112;DHT22;1062;52.538;13.400;2023-01-26T13:48:48;0.70;99.90
2112;DHT22;1062;52.538;13.400;2023-01-26T13:54:11;0.50;99.90
2112;DHT22;1062;52.538;13.400;2023-01-26T13:56:39;0.60;99.90
2112;DHT22;1062;52.538;13.400;2023-01-26T14:01:46;0.50;99.90
2112;DHT22;1062;52.538;13.400;2023-01-26T14:04:16;0.40;99.90
2112;DHT22;1062;52.538;13.400;2023-01-26T14:06:46;0.50;99.90
2112;DHT22;1062;52.538;13.400;2023-01-26T14:09:13;0.60;99.90
2112;DHT22;1062;52.538;13.400;2023-01-26T14:11:40;0.70;99.90
2112;DHT22;1062;52.538;13.400;2023-01-26T14:14:18;0.60;99.90
2112;DHT22;1062;52.538;13.400;2023-01-26T14:16:45;0.60;99.90
2112;DHT22;1062;52.538;13.400;2023-01-26T14:19:21;0.50;99.90
2112;DHT22;1062;52.538;13.400;2023-01-26T14:24:16;0.60;99.90
2112;DHT22;1062;52.538;13.400;2023-01-26T14:26:42;0.80;99.90
2112;DHT22;1062;52.538;13.400;2023-01-26T14:29:19;0.70;99.90
2112;DHT22;1062;52.538;13.400;2023-01-26T14:31:46;0.60;99.90
2112;DHT22;1062;52.538;13.400;2023-01-26T14:34:21;0.50;99.90
2112;DHT22;1062;52.538;13.400;2023-01-26T14:36:48;0.50;99.90
2112;DHT22;1062;52.538;13.400;2023-01-26T14:39:28;0.60;99.90
2112;DHT22;1062;52.538;13.400;2023-01-26T14:41:55;0.60;99.90
2112;DHT22;1062;52.538;13.400;2023-01-26T14:44:21;0.60;99.90
2112;DHT22;1062;52.538;13.400;2023-01-26T14:47:06;0.60;99.90
2112;DHT22;1062;52.538;13.400;2023-01-26T14:49:57;0.60;99.90
2112;DHT22;1062;52.538;13.400;2023-01-26T14:52:33;0.60;99.90
2112;DHT22;1062;52.538;13.400;2023-01-26T14:55:06;0.50;99.90
2112;DHT22;1062;52.538;13.400;2023-01-26T14:57:33;0.40;99.90
2112;DHT22;1062;52.538;13.400;2023-01-26T15:00:00;0.40;99.90
2112;DHT22;1062;52.538;13.400;2023-01-26T15:02:35;0.50;99.90
2112;DHT22;1062;52.538;13.400;2023-01-26T15:05:03;0.30;99.90
2112;DHT22;1062;52.538;13.400;2023-01-26T15:15:43;0.30;99.90
2112;DHT22;1062;52.538;13.400;2023-01-26T15:20:39;0.30;99.90
2112;DHT22;1062;52.538;13.400;2023-01-26T15:25:53;0.20;99.90
2112;DHT22;1062;52.538;13.400;2023-01-26T15:28:22;0.20;99.90
2112;DHT22;1062;52.538;13.400;2023-01-26T15:30:52;0.30;99.90
2112;DHT22;1062;52.538;13.400;2023-01-26T15:33:47;0.30;99.90
2112;DHT22;1062;52.538;13.400;2023-01-26T15:36:28;0.20;99.90
2112;DHT22;1062;52.538;13.400;2023-01-26T15:39:00;0.10;99.90
2112;DHT22;1062;52.538;13.400;2023-01-26T15:41:27;0.20;99.90
2112;DHT22;1062;52.538;13.400;2023-01-26T15:43:53;0.20;99.90
2112;DHT22;1062;52.538;13.400;2023-01-26T15:46:19;0.20;99.90
2112;DHT22;1062;52.538;13.400;2023-01-26T15:48:45;0.10;99.90
2112;DHT22;1062;52.538;13.400;2023-01-26T15:51:14;0.10;99.90
2112;DHT22;1062;52.538;13.400;2023-01-26T15:53:40;0.00;99.90
2112;DHT22;1062;52.538;13.400;2023-01-26T15:56:11;0.00;99.90
2112;DHT22;1062;52.538;13.400;2023-01-26T15:58:36;0.00;99.90
2112;DHT22;1062;52.538;13.400;2023-01-26T16:01:02;0.00;99.90
2112;DHT22;1062;52.538;13.400;2023-01-26T16:03:29;0.10;99.90
2112;DHT22;1062;52.538;13.400;2023-01-26T16:05:54;0.00;99.90
2112;DHT22;1062;52.538;13.400;2023-01-26T16:08:20;0.00;99.90
2112;DHT22;1062;52.538;13.400;2023-01-26T16:10:46;0.10;99.90
2112;DHT22;1062;52.538;13.400;2023-01-26T16:13:15;0.10;99.90
2112;DHT22;1062;52.538;13.400;2023-01-26T16:15:48;0.00;99.90
2112;DHT22;1062;52.538;13.400;2023-01-26T16:18:15;0.10;99.90
2112;DHT22;1062;52.538;13.400;2023-01-26T16:20:43;0.00;99.90
2112;DHT22;1062;52.538;13.400;2023-01-26T16:25:45;0.00;99.90
2112;DHT22;1062;52.538;13.400;2023-01-26T16:28:11;0.00;99.90
2112;DHT22;1062;52.538;13.400;2023-01-26T16:30:37;0.00;99.90
2112;DHT22;1062;52.538;13.400;2023-01-26T16:33:03;0.00;99.90
2112;DHT22;1062;52.538;13.400;2023-01-26T16:35:29;-0.10;99.90
2112;DHT22;1062;52.538;13.400;2023-01-26T16:37:55;-0.10;99.90
2112;DHT22;1062;52.538;13.400;2023-01-26T16:40:21;-0.10;99.90
2112;DHT22;1062;52.538;13.400;2023-01-26T16:42:51;-0.10;99.90
2112;DHT22;1062;52.538;13.400;2023-01-26T16:45:23;-0.10;99.90
2112;DHT22;1062;52.538;13.400;2023-01-26T16:47:52;-0.10;99.90
2112;DHT22;1062;52.538;13.400;2023-01-26T16:50:20;-0.10;99.90
2112;DHT22;1062;52.538;13.400;2023-01-26T16:52:46;-0.20;99.90
2112;DHT22;1062;52.538;13.400;2023-01-26T16:55:13;-0.10;99.90
2112;DHT22;1062;52.538;13.400;2023-01-26T16:57:41;-0.20;99.90
2112;DHT22;1062;52.538;13.400;2023-01-26T17:00:18;-0.20;99.90
2112;DHT22;1062;52.538;13.400;2023-01-26T17:02:48;-0.10;99.90
2112;DHT22;1062;52.538;13.400;2023-01-26T17:05:16;-0.10;99.90
2112;DHT22;1062;52.538;13.400;2023-01-26T17:07:42;0.00;99.90
2112;DHT22;1062;52.538;13.400;2023-01-26T17:10:09;-0.10;99.90
2112;DHT22;1062;52.538;13.400;2023-01-26T17:12:35;-0.10;99.90
2112;DHT22;1062;52.538;13.400;2023-01-26T17:15:02;-0.10;99.90
2112;DHT22;1062;52.538;13.400;2023-01-26T17:17:27;-0.10;99.90
2112;DHT22;1062;52.538;13.400;2023-01-26T17:19:53;-0.10;99.90
2112;DHT22;1062;52.538;13.400;2023-01-26T17:22:19;0.00;99.90
2112;DHT22;1062;52.538;13.400;2023-01-26T17:24:45;0.00;99.90
2112;DHT22;1062;52.538;13.400;2023-01-26T17:27:11;0.10;99.90
2112;DHT22;1062;52.538;13.400;2023-01-26T17:29:37;0.00;99.90
2112;DHT22;1062;52.538;13.400;2023-01-26T17:32:05;-0.10;99.90
2112;DHT22;1062;52.538;13.400;2023-01-26T17:34:31;-0.20;99.90
2112;DHT22;1062;52.538;13.400;2023-01-26T17:36:56;-0.20;99.90
2112;DHT22;1062;52.538;13.400;2023-01-26T17:39:23;-0.10;99.90
2112;DHT22;1062;52.538;13.400;2023-01-26T17:41:48;-0.10;99.90
2112;DHT22;1062;52.538;13.400;2023-01-26T17:44:14;-0.10;99.90
2112;DHT22;1062;52.538;13.400;2023-01-26T17:46:40;-0.20;99.90
2112;DHT22;1062;52.538;13.400;2023-01-26T17:49:06;-0.10;99.90
2112;DHT22;1062;52.538;13.400;2023-01-26T17:51:31;-0.10;99.90
2112;DHT22;1062;52.538;13.400;2023-01-26T17:53:57;0.00;99.90
2112;DHT22;1062;52.538;13.400;2023-01-26T17:56:23;0.00;99.90
2112;DHT22;1062;52.538;13.400;2023-01-26T17:58:51;0.10;99.90
2112;DHT22;1062;52.538;13.400;2023-01-26T18:01:17;0.00;99.90
2112;DHT22;1062;52.538;13.400;2023-01-26T18:03:44;0.00;99.90